sensor_id;sensor_type;location;lat;lon;timestamp;P1;durP1;ratioP1;P2;durP2;ratioP2
21786;SDS011;11055;50.870;4.316;2022-12-05T00:02:08;77.13;;;37.33;;
21786;SDS011;11055;50.870;4.316;2022-12-05T00:04:34;75.70;;;37.53;;
21786;SDS011;11055;50.870;4.316;2022-12-05T00:07:00;73.38;;;37.65;;
21786;SDS011;11055;50.870;4.316;2022-12-05T00:09:25;73.32;;;36.92;;
21786;SDS011;11055;50.870;4.316;2022-12-05T00:11:51;78.18;;;38.85;;
21786;SDS011;11055;50.870;4.316;2022-12-05T00:14:17;80.28;;;36.33;;
21786;SDS011;11055;50.870;4.316;2022-12-05T00:16:43;76.03;;;37.22;;
21786;SDS011;11055;50.870;4.316;2022-12-05T00:19:10;73.93;;;36.80;;
21786;SDS011;11055;50.870;4.316;2022-12-05T00:21:37;76.65;;;37.03;;
21786;SDS011;11055;50.870;4.316;2022-12-05T00:24:04;71.05;;;34.58;;
21786;SDS011;11055;50.870;4.316;2022-12-05T00:26:32;71.85;;;35.92;;
21786;SDS011;11055;50.870;4.316;2022-12-05T00:28:59;74.22;;;35.15;;
21786;SDS011;11055;50.870;4.316;2022-12-05T00:31:25;70.40;;;33.83;;
21786;SDS011;11055;50.870;4.316;2022-12-05T00:33:52;74.32;;;36.22;;
21786;SDS011;11055;50.870;4.316;2022-12-05T00:36:22;74.50;;;35.45;;
21786;SDS011;11055;50.870;4.316;2022-12-05T00:38:49;70.90;;;33.53;;
21786;SDS011;11055;50.870;4.316;2022-12-05T00:41:17;73.45;;;36.00;;
21786;SDS011;11055;50.870;4.316;2022-12-05T00:43:44;69.00;;;34.10;;
21786;SDS011;11055;50.870;4.316;2022-12-05T00:46:11;66.80;;;34.38;;
21786;SDS011;11055;50.870;4.316;2022-12-05T00:48:39;72.15;;;34.10;;
21786;SDS011;11055;50.870;4.316;2022-12-05T00:51:08;70.80;;;33.58;;
21786;SDS011;11055;50.870;4.316;2022-12-05T00:53:36;65.30;;;32.28;;
21786;SDS011;11055;50.870;4.316;2022-12-05T00:56:03;71.45;;;34.28;;
21786;SDS011;11055;50.870;4.316;2022-12-05T00:58:30;60.30;;;31.55;;
21786;SDS011;11055;50.870;4.316;2022-12-05T01:00:57;63.83;;;31.55;;
21786;SDS011;11055;50.870;4.316;2022-12-05T01:03:30;73.13;;;33.10;;
21786;SDS011;11055;50.870;4.316;2022-12-05T01:05:57;60.97;;;31.83;;
21786;SDS011;11055;50.870;4.316;2022-12-05T01:08:23;66.10;;;32.47;;
21786;SDS011;11055;50.870;4.316;2022-12-05T01:10:52;63.30;;;32.53;;
21786;SDS011;11055;50.870;4.316;2022-12-05T01:13:19;66.05;;;31.80;;
21786;SDS011;11055;50.870;4.316;2022-12-05T01:15:45;54.42;;;29.35;;
21786;SDS011;11055;50.870;4.316;2022-12-05T01:18:10;60.72;;;30.65;;
21786;SDS011;11055;50.870;4.316;2022-12-05T01:20:39;62.00;;;31.10;;
21786;SDS011;11055;50.870;4.316;2022-12-05T01:23:06;62.15;;;30.55;;
21786;SDS011;11055;50.870;4.316;2022-12-05T01:25:32;56.15;;;30.30;;
21786;SDS011;11055;50.870;4.316;2022-12-05T01:27:58;61.72;;;30.40;;
21786;SDS011;11055;50.870;4.316;2022-12-05T01:30:24;61.83;;;29.90;;
21786;SDS011;11055;50.870;4.316;2022-12-05T01:32:50;61.28;;;29.67;;
21786;SDS011;11055;50.870;4.316;2022-12-05T01:35:15;52.70;;;29.00;;
21786;SDS011;11055;50.870;4.316;2022-12-05T01:37:41;55.05;;;29.10;;
21786;SDS011;11055;50.870;4.316;2022-12-05T01:40:07;59.15;;;30.02;;
21786;SDS011;11055;50.870;4.316;2022-12-05T01:42:35;58.20;;;30.50;;
21786;SDS011;11055;50.870;4.316;2022-12-05T01:45:08;54.92;;;29.27;;
21786;SDS011;11055;50.870;4.316;2022-12-05T01:47:39;61.72;;;31.50;;
21786;SDS011;11055;50.870;4.316;2022-12-05T01:50:05;54.72;;;29.55;;
21786;SDS011;11055;50.870;4.316;2022-12-05T01:52:32;54.22;;;28.83;;
21786;SDS011;11055;50.870;4.316;2022-12-05T01:55:00;59.80;;;30.63;;
21786;SDS011;11055;50.870;4.316;2022-12-05T01:57:29;54.92;;;29.52;;
21786;SDS011;11055;50.870;4.316;2022-12-05T01:59:57;57.80;;;30.30;;
21786;SDS011;11055;50.870;4.316;2022-12-05T02:02:27;62.20;;;31.58;;
21786;SDS011;11055;50.870;4.316;2022-12-05T02:05:02;58.40;;;30.58;;
21786;SDS011;11055;50.870;4.316;2022-12-05T02:07:30;55.90;;;31.23;;
21786;SDS011;11055;50.870;4.316;2022-12-05T02:09:57;59.00;;;30.58;;
21786;SDS011;11055;50.870;4.316;2022-12-05T02:12:22;60.20;;;30.50;;
21786;SDS011;11055;50.870;4.316;2022-12-05T02:15:10;65.65;;;31.25;;
21786;SDS011;11055;50.870;4.316;2022-12-05T02:20:35;64.18;;;31.95;;
21786;SDS011;11055;50.870;4.316;2022-12-05T02:23:24;60.30;;;30.63;;
21786;SDS011;11055;50.870;4.316;2022-12-05T02:26:15;62.10;;;31.38;;
21786;SDS011;11055;50.870;4.316;2022-12-05T02:34:04;65.50;;;31.17;;
21786;SDS011;11055;50.870;4.316;2022-12-05T02:36:46;70.35;;;33.33;;
21786;SDS011;11055;50.870;4.316;2022-12-05T02:47:21;72.43;;;33.20;;
21786;SDS011;11055;50.870;4.316;2022-12-05T02:49:49;65.68;;;32.95;;
21786;SDS011;11055;50.870;4.316;2022-12-05T02:52:16;69.28;;;33.45;;
21786;SDS011;11055;50.870;4.316;2022-12-05T02:54:44;70.40;;;32.63;;
21786;SDS011;11055;50.870;4.316;2022-12-05T02:57:12;72.88;;;32.92;;
21786;SDS011;11055;50.870;4.316;2022-12-05T02:59:39;74.55;;;33.42;;
21786;SDS011;11055;50.870;4.316;2022-12-05T03:02:07;64.60;;;32.03;;
21786;SDS011;11055;50.870;4.316;2022-12-05T03:04:44;71.15;;;34.83;;
21786;SDS011;11055;50.870;4.316;2022-12-05T03:07:10;75.43;;;33.60;;
21786;SDS011;11055;50.870;4.316;2022-12-05T03:09:51;74.93;;;33.42;;
21786;SDS011;11055;50.870;4.316;2022-12-05T03:12:21;68.65;;;32.55;;
21786;SDS011;11055;50.870;4.316;2022-12-05T03:14:58;73.93;;;34.00;;
21786;SDS011;11055;50.870;4.316;2022-12-05T03:17:35;77.32;;;34.28;;
21786;SDS011;11055;50.870;4.316;2022-12-05T03:20:20;68.00;;;32.53;;
21786;SDS011;11055;50.870;4.316;2022-12-05T03:23:00;69.18;;;32.03;;
21786;SDS011;11055;50.870;4.316;2022-12-05T03:25:39;70.38;;;32.90;;
21786;SDS011;11055;50.870;4.316;2022-12-05T03:28:32;66.35;;;33.40;;
21786;SDS011;11055;50.870;4.316;2022-12-05T03:31:09;70.07;;;33.75;;
21786;SDS011;11055;50.870;4.316;2022-12-05T03:33:42;68.83;;;33.80;;
21786;SDS011;11055;50.870;4.316;2022-12-05T03:38:44;78.37;;;35.60;;
21786;SDS011;11055;50.870;4.316;2022-12-05T03:49:44;65.85;;;32.47;;
21786;SDS011;11055;50.870;4.316;2022-12-05T03:52:15;64.10;;;33.13;;
21786;SDS011;11055;50.870;4.316;2022-12-05T03:54:48;66.32;;;31.15;;
21786;SDS011;11055;50.870;4.316;2022-12-05T03:57:21;64.97;;;31.98;;
21786;SDS011;11055;50.870;4.316;2022-12-05T03:59:58;61.35;;;30.20;;
21786;SDS011;11055;50.870;4.316;2022-12-05T04:05:25;61.08;;;29.65;;
21786;SDS011;11055;50.870;4.316;2022-12-05T04:08:03;56.03;;;29.70;;
21786;SDS011;11055;50.870;4.316;2022-12-05T04:10:33;53.35;;;27.98;;
21786;SDS011;11055;50.870;4.316;2022-12-05T04:13:13;55.03;;;28.33;;
21786;SDS011;11055;50.870;4.316;2022-12-05T04:15:45;53.13;;;28.90;;
21786;SDS011;11055;50.870;4.316;2022-12-05T04:18:35;58.25;;;28.50;;
21786;SDS011;11055;50.870;4.316;2022-12-05T04:21:03;52.13;;;27.60;;
21786;SDS011;11055;50.870;4.316;2022-12-05T04:23:48;49.97;;;27.70;;
21786;SDS011;11055;50.870;4.316;2022-12-05T04:26:35;48.47;;;26.50;;
21786;SDS011;11055;50.870;4.316;2022-12-05T04:29:11;51.17;;;26.98;;
21786;SDS011;11055;50.870;4.316;2022-12-05T04:31:43;45.75;;;25.77;;
21786;SDS011;11055;50.870;4.316;2022-12-05T04:34:16;45.75;;;25.65;;
21786;SDS011;11055;50.870;4.316;2022-12-05T04:36:50;44.25;;;25.23;;
21786;SDS011;11055;50.870;4.316;2022-12-05T04:39:32;44.22;;;25.80;;
21786;SDS011;11055;50.870;4.316;2022-12-05T04:42:05;49.15;;;27.38;;
21786;SDS011;11055;50.870;4.316;2022-12-05T04:44:39;51.75;;;27.20;;
21786;SDS011;11055;50.870;4.316;2022-12-05T04:47:27;49.38;;;27.45;;
21786;SDS011;11055;50.870;4.316;2022-12-05T04:49:56;46.03;;;26.48;;
21786;SDS011;11055;50.870;4.316;2022-12-05T04:52:24;56.10;;;28.42;;
21786;SDS011;11055;50.870;4.316;2022-12-05T04:54:53;54.80;;;28.58;;
21786;SDS011;11055;50.870;4.316;2022-12-05T04:57:41;54.97;;;28.13;;
21786;SDS011;11055;50.870;4.316;2022-12-05T05:01:02;48.63;;;28.13;;
21786;SDS011;11055;50.870;4.316;2022-12-05T05:03:43;52.53;;;28.05;;
21786;SDS011;11055;50.870;4.316;2022-12-05T05:06:14;47.38;;;26.83;;
21786;SDS011;11055;50.870;4.316;2022-12-05T05:08:51;52.10;;;26.58;;
21786;SDS011;11055;50.870;4.316;2022-12-05T05:11:19;54.42;;;27.50;;
21786;SDS011;11055;50.870;4.316;2022-12-05T05:13:45;50.55;;;27.63;;
21786;SDS011;11055;50.870;4.316;2022-12-05T05:16:12;49.97;;;27.42;;
21786;SDS011;11055;50.870;4.316;2022-12-05T05:18:45;52.35;;;28.83;;
21786;SDS011;11055;50.870;4.316;2022-12-05T05:21:19;48.50;;;26.23;;
21786;SDS011;11055;50.870;4.316;2022-12-05T05:23:47;53.00;;;28.08;;
21786;SDS011;11055;50.870;4.316;2022-12-05T05:26:13;56.50;;;29.33;;
21786;SDS011;11055;50.870;4.316;2022-12-05T05:28:39;67.38;;;35.95;;
21786;SDS011;11055;50.870;4.316;2022-12-05T05:31:04;58.40;;;30.55;;
21786;SDS011;11055;50.870;4.316;2022-12-05T05:33:31;58.97;;;29.35;;
21786;SDS011;11055;50.870;4.316;2022-12-05T05:36:07;58.60;;;30.80;;
21786;SDS011;11055;50.870;4.316;2022-12-05T05:38:39;57.20;;;29.15;;
21786;SDS011;11055;50.870;4.316;2022-12-05T05:41:14;56.33;;;31.27;;
21786;SDS011;11055;50.870;4.316;2022-12-05T05:43:40;57.75;;;30.73;;
21786;SDS011;11055;50.870;4.316;2022-12-05T05:46:07;63.63;;;31.50;;
21786;SDS011;11055;50.870;4.316;2022-12-05T05:48:33;58.13;;;30.38;;
21786;SDS011;11055;50.870;4.316;2022-12-05T05:50:59;66.70;;;33.30;;
21786;SDS011;11055;50.870;4.316;2022-12-05T05:53:29;60.67;;;29.98;;
21786;SDS011;11055;50.870;4.316;2022-12-05T05:55:55;64.53;;;31.27;;
21786;SDS011;11055;50.870;4.316;2022-12-05T05:58:20;62.08;;;31.45;;
21786;SDS011;11055;50.870;4.316;2022-12-05T06:00:46;60.22;;;30.65;;
21786;SDS011;11055;50.870;4.316;2022-12-05T06:03:12;57.00;;;30.52;;
21786;SDS011;11055;50.870;4.316;2022-12-05T06:05:38;53.75;;;30.27;;
21786;SDS011;11055;50.870;4.316;2022-12-05T06:08:04;63.88;;;31.27;;
21786;SDS011;11055;50.870;4.316;2022-12-05T06:10:30;57.78;;;32.30;;
21786;SDS011;11055;50.870;4.316;2022-12-05T06:12:56;57.20;;;30.73;;
21786;SDS011;11055;50.870;4.316;2022-12-05T06:15:22;60.10;;;31.88;;
21786;SDS011;11055;50.870;4.316;2022-12-05T06:17:48;62.45;;;32.13;;
21786;SDS011;11055;50.870;4.316;2022-12-05T06:20:14;58.35;;;31.08;;
21786;SDS011;11055;50.870;4.316;2022-12-05T06:22:39;58.35;;;30.85;;
21786;SDS011;11055;50.870;4.316;2022-12-05T06:25:05;62.05;;;31.45;;
21786;SDS011;11055;50.870;4.316;2022-12-05T06:27:31;65.82;;;31.45;;
21786;SDS011;11055;50.870;4.316;2022-12-05T06:29:57;59.38;;;31.58;;
21786;SDS011;11055;50.870;4.316;2022-12-05T06:32:24;62.85;;;32.45;;
21786;SDS011;11055;50.870;4.316;2022-12-05T06:34:51;61.50;;;31.95;;
21786;SDS011;11055;50.870;4.316;2022-12-05T06:37:16;59.08;;;31.38;;
21786;SDS011;11055;50.870;4.316;2022-12-05T06:39:42;64.93;;;31.65;;
21786;SDS011;11055;50.870;4.316;2022-12-05T06:42:08;63.33;;;33.00;;
21786;SDS011;11055;50.870;4.316;2022-12-05T06:44:33;66.55;;;32.15;;
21786;SDS011;11055;50.870;4.316;2022-12-05T06:46:59;59.67;;;31.48;;
21786;SDS011;11055;50.870;4.316;2022-12-05T06:49:25;61.38;;;32.55;;
21786;SDS011;11055;50.870;4.316;2022-12-05T06:54:22;63.35;;;31.83;;
21786;SDS011;11055;50.870;4.316;2022-12-05T06:56:47;57.65;;;31.23;;
21786;SDS011;11055;50.870;4.316;2022-12-05T06:59:13;54.50;;;29.20;;
21786;SDS011;11055;50.870;4.316;2022-12-05T07:01:39;62.47;;;33.00;;
21786;SDS011;11055;50.870;4.316;2022-12-05T07:06:36;59.15;;;31.33;;
21786;SDS011;11055;50.870;4.316;2022-12-05T07:09:03;63.72;;;33.40;;
21786;SDS011;11055;50.870;4.316;2022-12-05T07:11:29;61.67;;;33.15;;
21786;SDS011;11055;50.870;4.316;2022-12-05T07:13:55;67.10;;;32.28;;
21786;SDS011;11055;50.870;4.316;2022-12-05T07:16:21;58.83;;;31.70;;
21786;SDS011;11055;50.870;4.316;2022-12-05T07:18:46;57.10;;;30.98;;
21786;SDS011;11055;50.870;4.316;2022-12-05T07:21:13;63.75;;;32.42;;
21786;SDS011;11055;50.870;4.316;2022-12-05T07:23:40;59.33;;;31.38;;
21786;SDS011;11055;50.870;4.316;2022-12-05T07:26:08;58.50;;;30.42;;
21786;SDS011;11055;50.870;4.316;2022-12-05T07:28:35;62.58;;;31.38;;
21786;SDS011;11055;50.870;4.316;2022-12-05T07:31:02;58.30;;;31.20;;
21786;SDS011;11055;50.870;4.316;2022-12-05T07:33:30;58.13;;;31.10;;
21786;SDS011;11055;50.870;4.316;2022-12-05T07:36:00;54.97;;;31.50;;
21786;SDS011;11055;50.870;4.316;2022-12-05T07:38:27;63.53;;;32.53;;
21786;SDS011;11055;50.870;4.316;2022-12-05T07:40:53;69.93;;;33.22;;
21786;SDS011;11055;50.870;4.316;2022-12-05T07:43:18;58.53;;;31.27;;
21786;SDS011;11055;50.870;4.316;2022-12-05T07:45:44;61.55;;;31.05;;
21786;SDS011;11055;50.870;4.316;2022-12-05T07:48:10;63.95;;;32.53;;
21786;SDS011;11055;50.870;4.316;2022-12-05T07:50:36;67.47;;;32.78;;
21786;SDS011;11055;50.870;4.316;2022-12-05T07:53:01;63.45;;;33.03;;
21786;SDS011;11055;50.870;4.316;2022-12-05T07:55:27;67.78;;;32.30;;
21786;SDS011;11055;50.870;4.316;2022-12-05T07:57:53;69.60;;;33.85;;
21786;SDS011;11055;50.870;4.316;2022-12-05T08:00:19;65.25;;;31.83;;
21786;SDS011;11055;50.870;4.316;2022-12-05T08:02:45;64.97;;;32.28;;
21786;SDS011;11055;50.870;4.316;2022-12-05T08:05:11;65.40;;;32.10;;
21786;SDS011;11055;50.870;4.316;2022-12-05T08:07:37;64.90;;;32.97;;
21786;SDS011;11055;50.870;4.316;2022-12-05T08:10:03;67.25;;;31.38;;
21786;SDS011;11055;50.870;4.316;2022-12-05T08:12:29;58.58;;;31.25;;
21786;SDS011;11055;50.870;4.316;2022-12-05T08:14:54;59.15;;;30.85;;
21786;SDS011;11055;50.870;4.316;2022-12-05T08:17:20;55.35;;;30.65;;
21786;SDS011;11055;50.870;4.316;2022-12-05T08:19:46;62.53;;;31.00;;
21786;SDS011;11055;50.870;4.316;2022-12-05T08:22:11;59.95;;;29.75;;
21786;SDS011;11055;50.870;4.316;2022-12-05T08:24:37;59.40;;;28.73;;
21786;SDS011;11055;50.870;4.316;2022-12-05T08:27:04;54.35;;;29.25;;
21786;SDS011;11055;50.870;4.316;2022-12-05T08:29:29;55.58;;;28.92;;
21786;SDS011;11055;50.870;4.316;2022-12-05T08:31:55;56.42;;;29.45;;
21786;SDS011;11055;50.870;4.316;2022-12-05T08:34:21;51.10;;;27.60;;
21786;SDS011;11055;50.870;4.316;2022-12-05T08:36:47;50.95;;;27.52;;
21786;SDS011;11055;50.870;4.316;2022-12-05T08:39:13;51.63;;;26.75;;
21786;SDS011;11055;50.870;4.316;2022-12-05T08:41:42;45.80;;;27.02;;
21786;SDS011;11055;50.870;4.316;2022-12-05T08:44:08;47.35;;;26.23;;
21786;SDS011;11055;50.870;4.316;2022-12-05T08:46:40;46.38;;;26.40;;
21786;SDS011;11055;50.870;4.316;2022-12-05T08:49:06;44.13;;;26.17;;
21786;SDS011;11055;50.870;4.316;2022-12-05T08:51:32;45.72;;;26.00;;
21786;SDS011;11055;50.870;4.316;2022-12-05T08:54:00;39.60;;;23.58;;
21786;SDS011;11055;50.870;4.316;2022-12-05T08:56:27;38.03;;;22.95;;
21786;SDS011;11055;50.870;4.316;2022-12-05T08:58:53;42.67;;;24.77;;
21786;SDS011;11055;50.870;4.316;2022-12-05T09:01:19;43.17;;;24.35;;
21786;SDS011;11055;50.870;4.316;2022-12-05T09:03:46;40.15;;;23.10;;
21786;SDS011;11055;50.870;4.316;2022-12-05T09:06:19;40.38;;;24.02;;
21786;SDS011;11055;50.870;4.316;2022-12-05T09:08:48;40.55;;;23.95;;
21786;SDS011;11055;50.870;4.316;2022-12-05T09:11:19;36.08;;;21.17;;
21786;SDS011;11055;50.870;4.316;2022-12-05T09:13:47;37.67;;;21.73;;
21786;SDS011;11055;50.870;4.316;2022-12-05T09:16:16;35.97;;;22.42;;
21786;SDS011;11055;50.870;4.316;2022-12-05T09:18:44;34.70;;;21.73;;
21786;SDS011;11055;50.870;4.316;2022-12-05T09:21:15;36.78;;;21.73;;
21786;SDS011;11055;50.870;4.316;2022-12-05T09:23:43;35.60;;;21.13;;
21786;SDS011;11055;50.870;4.316;2022-12-05T09:26:10;35.45;;;22.35;;
21786;SDS011;11055;50.870;4.316;2022-12-05T09:28:37;35.88;;;21.77;;
21786;SDS011;11055;50.870;4.316;2022-12-05T09:31:05;31.77;;;21.63;;
21786;SDS011;11055;50.870;4.316;2022-12-05T09:33:33;31.25;;;20.10;;
21786;SDS011;11055;50.870;4.316;2022-12-05T09:36:33;36.17;;;21.67;;
21786;SDS011;11055;50.870;4.316;2022-12-05T09:38:54;33.17;;;20.58;;
21786;SDS011;11055;50.870;4.316;2022-12-05T09:52:47;30.75;;;18.60;;
21786;SDS011;11055;50.870;4.316;2022-12-05T09:55:18;34.13;;;20.70;;
21786;SDS011;11055;50.870;4.316;2022-12-05T09:57:49;27.40;;;18.10;;
21786;SDS011;11055;50.870;4.316;2022-12-05T10:00:18;32.13;;;19.50;;
21786;SDS011;11055;50.870;4.316;2022-12-05T10:05:46;29.35;;;18.30;;
21786;SDS011;11055;50.870;4.316;2022-12-05T10:08:18;30.48;;;20.00;;
21786;SDS011;11055;50.870;4.316;2022-12-05T10:11:02;28.77;;;20.15;;
21786;SDS011;11055;50.870;4.316;2022-12-05T10:16:20;28.73;;;19.38;;
21786;SDS011;11055;50.870;4.316;2022-12-05T10:18:57;28.98;;;18.92;;
21786;SDS011;11055;50.870;4.316;2022-12-05T10:21:50;29.10;;;18.05;;
21786;SDS011;11055;50.870;4.316;2022-12-05T10:24:31;31.58;;;20.38;;
21786;SDS011;11055;50.870;4.316;2022-12-05T10:27:03;28.95;;;19.02;;
21786;SDS011;11055;50.870;4.316;2022-12-05T10:29:39;30.73;;;18.35;;
21786;SDS011;11055;50.870;4.316;2022-12-05T10:32:35;26.27;;;18.13;;
21786;SDS011;11055;50.870;4.316;2022-12-05T10:35:17;29.02;;;19.45;;
21786;SDS011;11055;50.870;4.316;2022-12-05T10:37:52;31.55;;;19.95;;
21786;SDS011;11055;50.870;4.316;2022-12-05T10:40:23;30.55;;;19.63;;
21786;SDS011;11055;50.870;4.316;2022-12-05T10:42:51;29.27;;;19.40;;
21786;SDS011;11055;50.870;4.316;2022-12-05T10:45:18;30.42;;;19.20;;
21786;SDS011;11055;50.870;4.316;2022-12-05T10:47:46;33.97;;;21.52;;
21786;SDS011;11055;50.870;4.316;2022-12-05T10:50:21;30.40;;;19.38;;
21786;SDS011;11055;50.870;4.316;2022-12-05T10:52:56;29.60;;;18.80;;
21786;SDS011;11055;50.870;4.316;2022-12-05T10:55:29;34.78;;;20.13;;
21786;SDS011;11055;50.870;4.316;2022-12-05T10:58:34;29.60;;;17.65;;
21786;SDS011;11055;50.870;4.316;2022-12-05T11:01:06;30.30;;;18.85;;
21786;SDS011;11055;50.870;4.316;2022-12-05T11:03:34;27.83;;;18.87;;
21786;SDS011;11055;50.870;4.316;2022-12-05T11:08:51;25.60;;;17.85;;
21786;SDS011;11055;50.870;4.316;2022-12-05T11:11:25;24.50;;;16.75;;
21786;SDS011;11055;50.870;4.316;2022-12-05T11:13:57;25.88;;;17.13;;
21786;SDS011;11055;50.870;4.316;2022-12-05T11:16:24;29.73;;;17.55;;
21786;SDS011;11055;50.870;4.316;2022-12-05T11:21:20;20.92;;;14.82;;
21786;SDS011;11055;50.870;4.316;2022-12-05T11:23:46;20.48;;;14.90;;
21786;SDS011;11055;50.870;4.316;2022-12-05T11:26:17;22.25;;;15.27;;
21786;SDS011;11055;50.870;4.316;2022-12-05T11:28:59;23.50;;;16.00;;
21786;SDS011;11055;50.870;4.316;2022-12-05T11:31:26;23.45;;;15.70;;
21786;SDS011;11055;50.870;4.316;2022-12-05T11:34:00;23.77;;;16.23;;
21786;SDS011;11055;50.870;4.316;2022-12-05T11:36:39;22.90;;;16.50;;
21786;SDS011;11055;50.870;4.316;2022-12-05T11:39:12;22.33;;;16.10;;
21786;SDS011;11055;50.870;4.316;2022-12-05T11:58:09;24.60;;;16.95;;
21786;SDS011;11055;50.870;4.316;2022-12-05T12:03:29;23.48;;;16.58;;
21786;SDS011;11055;50.870;4.316;2022-12-05T12:08:49;26.30;;;17.58;;
21786;SDS011;11055;50.870;4.316;2022-12-05T12:16:53;23.63;;;17.48;;
21786;SDS011;11055;50.870;4.316;2022-12-05T12:22:29;23.60;;;17.80;;
21786;SDS011;11055;50.870;4.316;2022-12-05T12:31:04;25.23;;;18.65;;
21786;SDS011;11055;50.870;4.316;2022-12-05T12:33:45;24.50;;;18.58;;
21786;SDS011;11055;50.870;4.316;2022-12-05T12:39:09;20.67;;;16.00;;
21786;SDS011;11055;50.870;4.316;2022-12-05T12:44:39;21.42;;;16.33;;
21786;SDS011;11055;50.870;4.316;2022-12-05T12:49:54;21.38;;;15.20;;
21786;SDS011;11055;50.870;4.316;2022-12-05T12:55:21;24.88;;;18.25;;
21786;SDS011;11055;50.870;4.316;2022-12-05T12:58:05;20.80;;;15.45;;
21786;SDS011;11055;50.870;4.316;2022-12-05T13:03:32;20.90;;;15.52;;
21786;SDS011;11055;50.870;4.316;2022-12-05T13:06:08;21.00;;;16.20;;
21786;SDS011;11055;50.870;4.316;2022-12-05T13:08:48;23.92;;;17.90;;
21786;SDS011;11055;50.870;4.316;2022-12-05T13:11:18;22.60;;;17.00;;
21786;SDS011;11055;50.870;4.316;2022-12-05T13:13:50;23.92;;;17.75;;
21786;SDS011;11055;50.870;4.316;2022-12-05T13:16:21;27.60;;;19.85;;
21786;SDS011;11055;50.870;4.316;2022-12-05T13:18:53;27.48;;;19.83;;
21786;SDS011;11055;50.870;4.316;2022-12-05T13:21:20;25.98;;;19.08;;
21786;SDS011;11055;50.870;4.316;2022-12-05T13:23:48;26.75;;;18.50;;
21786;SDS011;11055;50.870;4.316;2022-12-05T13:26:15;26.83;;;19.50;;
21786;SDS011;11055;50.870;4.316;2022-12-05T13:31:37;27.40;;;19.90;;
21786;SDS011;11055;50.870;4.316;2022-12-05T13:34:05;29.63;;;20.13;;
21786;SDS011;11055;50.870;4.316;2022-12-05T13:37:17;29.67;;;21.00;;
21786;SDS011;11055;50.870;4.316;2022-12-05T13:40:05;26.60;;;19.75;;
21786;SDS011;11055;50.870;4.316;2022-12-05T13:43:03;28.60;;;20.38;;
21786;SDS011;11055;50.870;4.316;2022-12-05T13:45:30;27.52;;;20.30;;
21786;SDS011;11055;50.870;4.316;2022-12-05T13:51:27;30.33;;;21.10;;
21786;SDS011;11055;50.870;4.316;2022-12-05T13:58:47;28.35;;;20.30;;
21786;SDS011;11055;50.870;4.316;2022-12-05T14:01:58;30.70;;;20.67;;
21786;SDS011;11055;50.870;4.316;2022-12-05T14:07:10;28.08;;;21.27;;
21786;SDS011;11055;50.870;4.316;2022-12-05T14:09:49;25.98;;;19.63;;
21786;SDS011;11055;50.870;4.316;2022-12-05T14:17:23;28.27;;;21.38;;
21786;SDS011;11055;50.870;4.316;2022-12-05T14:23:07;27.60;;;20.40;;
21786;SDS011;11055;50.870;4.316;2022-12-05T14:25:48;27.92;;;20.55;;
21786;SDS011;11055;50.870;4.316;2022-12-05T14:31:21;31.85;;;21.10;;
21786;SDS011;11055;50.870;4.316;2022-12-05T14:34:24;28.30;;;21.42;;
21786;SDS011;11055;50.870;4.316;2022-12-05T14:37:19;28.25;;;20.50;;
21786;SDS011;11055;50.870;4.316;2022-12-05T14:39:51;29.33;;;20.23;;
21786;SDS011;11055;50.870;4.316;2022-12-05T14:42:34;29.00;;;21.80;;
21786;SDS011;11055;50.870;4.316;2022-12-05T14:47:52;33.83;;;23.65;;
21786;SDS011;11055;50.870;4.316;2022-12-05T14:56:33;31.52;;;22.02;;
21786;SDS011;11055;50.870;4.316;2022-12-05T14:59:09;37.72;;;24.13;;
21786;SDS011;11055;50.870;4.316;2022-12-05T15:02:10;33.33;;;23.65;;
21786;SDS011;11055;50.870;4.316;2022-12-05T15:04:46;33.08;;;24.13;;
21786;SDS011;11055;50.870;4.316;2022-12-05T15:07:41;33.65;;;23.95;;
21786;SDS011;11055;50.870;4.316;2022-12-05T15:10:21;32.03;;;22.58;;
21786;SDS011;11055;50.870;4.316;2022-12-05T15:12:53;33.83;;;23.35;;
21786;SDS011;11055;50.870;4.316;2022-12-05T15:15:34;31.83;;;22.45;;
21786;SDS011;11055;50.870;4.316;2022-12-05T15:18:22;33.70;;;23.17;;
21786;SDS011;11055;50.870;4.316;2022-12-05T15:23:57;40.17;;;28.73;;
21786;SDS011;11055;50.870;4.316;2022-12-05T15:34:27;43.60;;;27.10;;
21786;SDS011;11055;50.870;4.316;2022-12-05T15:40:11;43.55;;;29.80;;
21786;SDS011;11055;50.870;4.316;2022-12-05T15:45:28;47.35;;;32.17;;
21786;SDS011;11055;50.870;4.316;2022-12-05T15:47:55;47.45;;;29.85;;
21786;SDS011;11055;50.870;4.316;2022-12-05T15:50:43;68.53;;;44.45;;
21786;SDS011;11055;50.870;4.316;2022-12-05T16:00:49;48.13;;;31.77;;
21786;SDS011;11055;50.870;4.316;2022-12-05T16:06:03;53.80;;;33.08;;
21786;SDS011;11055;50.870;4.316;2022-12-05T16:08:35;64.32;;;34.08;;
21786;SDS011;11055;50.870;4.316;2022-12-05T16:11:10;57.55;;;35.50;;
21786;SDS011;11055;50.870;4.316;2022-12-05T16:14:10;56.88;;;33.45;;
21786;SDS011;11055;50.870;4.316;2022-12-05T16:16:31;51.50;;;32.15;;
21786;SDS011;11055;50.870;4.316;2022-12-05T16:19:04;53.35;;;33.83;;
21786;SDS011;11055;50.870;4.316;2022-12-05T16:21:46;53.67;;;33.25;;
21786;SDS011;11055;50.870;4.316;2022-12-05T16:24:28;58.33;;;33.70;;
21786;SDS011;11055;50.870;4.316;2022-12-05T16:27:00;55.78;;;32.53;;
21786;SDS011;11055;50.870;4.316;2022-12-05T16:29:32;48.88;;;31.80;;
21786;SDS011;11055;50.870;4.316;2022-12-05T16:32:03;52.47;;;33.00;;
21786;SDS011;11055;50.870;4.316;2022-12-05T16:34:37;49.83;;;32.80;;
21786;SDS011;11055;50.870;4.316;2022-12-05T16:37:03;53.10;;;31.50;;
21786;SDS011;11055;50.870;4.316;2022-12-05T16:39:30;48.53;;;30.58;;
21786;SDS011;11055;50.870;4.316;2022-12-05T16:41:55;47.97;;;31.65;;
21786;SDS011;11055;50.870;4.316;2022-12-05T16:47:21;44.53;;;29.65;;
21786;SDS011;11055;50.870;4.316;2022-12-05T16:49:48;43.78;;;27.95;;
21786;SDS011;11055;50.870;4.316;2022-12-05T16:52:14;42.85;;;27.90;;
21786;SDS011;11055;50.870;4.316;2022-12-05T16:54:41;44.03;;;28.20;;
21786;SDS011;11055;50.870;4.316;2022-12-05T16:57:11;43.90;;;28.10;;
21786;SDS011;11055;50.870;4.316;2022-12-05T16:59:38;41.55;;;27.30;;
21786;SDS011;11055;50.870;4.316;2022-12-05T17:04:36;40.53;;;27.05;;
21786;SDS011;11055;50.870;4.316;2022-12-05T17:07:02;41.45;;;29.38;;
21786;SDS011;11055;50.870;4.316;2022-12-05T17:09:28;42.17;;;28.60;;
21786;SDS011;11055;50.870;4.316;2022-12-05T17:11:56;41.53;;;28.98;;
21786;SDS011;11055;50.870;4.316;2022-12-05T17:14:45;43.20;;;28.83;;
21786;SDS011;11055;50.870;4.316;2022-12-05T17:17:11;41.35;;;27.38;;
21786;SDS011;11055;50.870;4.316;2022-12-05T17:19:37;43.25;;;28.13;;
21786;SDS011;11055;50.870;4.316;2022-12-05T17:22:03;41.03;;;28.25;;
21786;SDS011;11055;50.870;4.316;2022-12-05T17:24:30;46.90;;;31.80;;
21786;SDS011;11055;50.870;4.316;2022-12-05T17:26:56;38.42;;;27.13;;
21786;SDS011;11055;50.870;4.316;2022-12-05T17:29:21;39.63;;;27.77;;
21786;SDS011;11055;50.870;4.316;2022-12-05T17:31:47;45.13;;;30.02;;
21786;SDS011;11055;50.870;4.316;2022-12-05T17:34:14;44.58;;;29.38;;
21786;SDS011;11055;50.870;4.316;2022-12-05T17:36:41;45.03;;;29.98;;
21786;SDS011;11055;50.870;4.316;2022-12-05T17:39:08;44.83;;;30.17;;
21786;SDS011;11055;50.870;4.316;2022-12-05T17:41:33;44.13;;;30.48;;